KOTH - North Bend, Oregon, USA
Updated: Tue, 21-Nov-2017 2:56am PST
Mostly Cloudy
Mostly Cloudy
 Wind from ESE
Wind: ESE 7 mph , 11 km/h
Temperature: 55°F , 13°C
Dew Point: 55°F , 13°C
Humidity: 100%
Barometer: 29.97 inHg , 1014.9 hPa
Clouds: Mostly Cloudy
Visibility: 10 miles , 16 km
Cloud details: Few Clouds 4400 ft
Mostly Cloudy 10000 ft
2017/11/21 10:56 KOTH 211056Z AUTO 12006KT 10SM FEW044 BKN100 13/13 A2997 RMK AO2 SLP149 T01280128

Metar display script from Saratoga-Weather.org